Time;durP1;ratioP1;P1;durP2;ratioP2;P2;SDS_P1;SDS_P2;PMS_P1;PMS_P2;Temp;Humidity;BMP_temperature;BMP_pressure;BME280_temperature;BME280_humidity;BME280_pressure;Samples;Min_cycle;Max_cycle;Signal;HPM_P1;HPM_P2
2021/08/11 00:00:15;;;;;;;2.47;2.28;;;;;;;19.67;63.85;100993.03;5050685;28;20029;-51
2021/08/11 00:02:40;;;;;;;2.63;2.10;;;;;;;19.66;63.70;100983.22;5050274;28;20017;-53
2021/08/11 00:05:07;;;;;;;2.78;2.38;;;;;;;19.67;63.65;100988.50;5049946;28;20027;-54
2021/08/11 00:07:32;;;;;;;2.70;2.42;;;;;;;19.68;63.56;100986.72;5032949;28;20029;-51
2021/08/11 00:09:58;;;;;;;2.83;2.00;;;;;;;19.64;63.68;100988.63;5049067;28;20077;-51
2021/08/11 00:12:24;;;;;;;2.45;2.08;;;;;;;19.64;63.81;100987.78;5050921;28;20108;-52
2021/08/11 00:14:49;;;;;;;2.03;1.88;;;;;;;19.64;63.73;100987.78;5050173;28;20071;-53
2021/08/11 00:17:14;;;;;;;2.60;1.95;;;;;;;19.61;63.74;100986.97;5050424;28;20029;-51
2021/08/11 00:19:40;;;;;;;2.30;2.10;;;;;;;19.62;63.79;100987.84;5049142;28;20028;-54
2021/08/11 00:22:05;;;;;;;2.70;2.05;;;;;;;19.63;63.63;100986.06;5049991;28;20053;-52
2021/08/11 00:24:31;;;;;;;2.30;1.88;;;;;;;19.63;63.65;100989.59;5049684;28;20464;-51
2021/08/11 00:26:56;;;;;;;2.20;2.00;;;;;;;19.63;63.64;100996.75;5048462;28;20037;-51
2021/08/11 00:29:21;;;;;;;2.00;1.80;;;;;;;19.68;63.78;100994.75;5050224;28;20040;-51
2021/08/11 00:31:46;;;;;;;2.30;2.10;;;;;;;19.67;63.73;100993.03;5050217;28;20037;-51
2021/08/11 00:34:12;;;;;;;2.17;1.98;;;;;;;19.69;63.57;100985.78;5048882;28;20036;-52
2021/08/11 00:36:37;;;;;;;3.30;2.15;;;;;;;19.69;63.59;100988.47;5049869;28;20035;-53
2021/08/11 00:39:02;;;;;;;2.10;1.90;;;;;;;19.68;63.50;100989.41;5050208;28;20029;-54
2021/08/11 00:41:28;;;;;;;1.83;1.73;;;;;;;19.68;63.46;100990.28;5049679;28;20090;-53
2021/08/11 00:43:53;;;;;;;2.80;2.08;;;;;;;19.65;63.44;100984.16;5050240;28;20021;-52
2021/08/11 00:46:19;;;;;;;2.42;2.22;;;;;;;19.68;63.35;100994.75;5047451;28;20036;-55
2021/08/11 00:48:45;;;;;;;2.08;1.88;;;;;;;19.65;63.43;100997.56;5048499;28;20040;-51
2021/08/11 00:51:10;;;;;;;1.92;1.83;;;;;;;19.67;63.27;100998.38;5048994;28;20036;-52
2021/08/11 00:53:38;;;;;;;2.30;2.10;;;;;;;19.66;63.38;101004.63;5048730;28;20039;-56
2021/08/11 00:56:04;;;;;;;3.95;2.30;;;;;;;19.63;63.35;100997.63;5052361;28;20063;-56
2021/08/11 00:58:30;;;;;;;2.53;2.33;;;;;;;19.61;63.43;100997.66;5053909;28;20020;-52
2021/08/11 01:00:57;;;;;;;1.88;1.77;;;;;;;19.63;63.34;101002.97;5037043;28;20071;-51
2021/08/11 01:03:23;;;;;;;2.38;2.08;;;;;;;19.64;63.43;101015.41;5054083;28;20092;-53
2021/08/11 01:06:13;;;;;;;3.10;2.30;;;;;;;19.59;63.37;101017.41;5050635;28;20071;-53
2021/08/11 01:08:40;;;;;;;2.70;2.42;;;;;;;19.58;63.41;101019.19;5035627;28;20107;-52
2021/08/11 01:11:06;;;;;;;2.63;2.20;;;;;;;19.58;63.34;101019.19;5036276;28;20021;-51
2021/08/11 01:13:32;;;;;;;2.70;1.85;;;;;;;19.57;63.47;101020.13;5034805;28;20036;-55
2021/08/11 01:15:57;;;;;;;2.53;2.00;;;;;;;19.55;63.43;101027.38;5052053;28;20041;-54
2021/08/11 01:18:23;;;;;;;2.33;2.10;;;;;;;19.54;63.47;101017.59;5051821;28;20021;-53
2021/08/11 01:21:00;;;;;;;2.60;2.40;;;;;;;19.53;63.39;101026.56;5053737;28;20439;-51
2021/08/11 01:23:29;;;;;;;2.45;2.25;;;;;;;19.53;63.39;101029.22;5053747;28;20017;-51
2021/08/11 01:26:06;;;;;;;2.40;2.20;;;;;;;19.50;63.38;101018.66;5036036;28;20491;-55
2021/08/11 01:28:44;;;;;;;2.20;2.00;;;;;;;19.49;63.41;101015.13;5035182;28;20107;-53
2021/08/11 01:31:18;;;;;;;2.55;2.13;;;;;;;19.49;63.36;101011.56;5034975;28;20056;-51
2021/08/11 01:34:00;;;;;;;2.47;2.28;;;;;;;19.50;63.30;101013.31;5050258;28;20028;-51
2021/08/11 01:36:43;;;;;;;2.58;2.15;;;;;;;19.48;63.45;101013.38;5033474;28;20033;-53
2021/08/11 01:39:27;;;;;;;2.38;2.13;;;;;;;19.47;63.52;101003.59;5035480;28;20074;-51
2021/08/11 01:42:08;;;;;;;2.72;2.33;;;;;;;19.46;63.51;101006.34;5051361;28;20028;-51
2021/08/11 01:44:54;;;;;;;2.58;2.38;;;;;;;19.45;63.54;101000.13;5028729;28;20037;-53
2021/08/11 01:47:22;;;;;;;3.40;1.95;;;;;;;19.45;63.50;101004.59;5051589;28;20029;-53
2021/08/11 01:49:49;;;;;;;2.60;2.40;;;;;;;19.44;63.54;101003.72;5037683;28;20029;-53
2021/08/11 01:52:15;;;;;;;2.88;2.53;;;;;;;19.42;63.56;101007.41;5035213;28;20033;-51
2021/08/11 01:54:42;;;;;;;2.70;2.30;;;;;;;19.41;63.61;101008.34;5052121;28;20033;-52
2021/08/11 01:57:08;;;;;;;2.72;2.53;;;;;;;19.41;63.61;101008.34;5036479;28;20041;-51
2021/08/11 01:59:34;;;;;;;2.72;2.53;;;;;;;19.41;63.61;101003.00;5035616;28;20115;-60
2021/08/11 02:01:59;;;;;;;2.60;2.25;;;;;;;19.40;63.65;101001.25;5052301;28;20442;-52
2021/08/11 02:04:25;;;;;;;2.47;2.08;;;;;;;19.40;63.60;100998.59;5033856;28;20541;-54
2021/08/11 02:06:52;;;;;;;2.17;1.98;;;;;;;19.40;63.45;101006.63;5052942;28;20063;-52
2021/08/11 02:09:19;;;;;;;2.60;2.22;;;;;;;19.39;63.57;101007.53;5038395;28;20127;-55
2021/08/11 02:11:44;;;;;;;2.60;2.33;;;;;;;19.36;63.55;101012.09;5035859;28;20071;-51
2021/08/11 02:14:11;;;;;;;3.00;2.42;;;;;;;19.36;63.66;101003.19;5052282;28;20023;-52
2021/08/11 02:16:40;;;;;;;2.60;2.40;;;;;;;19.36;63.46;101011.19;5051711;28;20036;-52
2021/08/11 02:19:05;;;;;;;2.78;2.47;;;;;;;19.36;63.66;101011.19;5050966;28;21729;-54
2021/08/11 02:21:30;;;;;;;2.78;2.58;;;;;;;19.35;63.58;101018.34;5051432;28;20033;-52
2021/08/11 02:23:56;;;;;;;2.55;2.30;;;;;;;19.35;63.52;101009.47;5051031;28;20017;-51
2021/08/11 02:26:50;;;;;;;2.28;2.08;;;;;;;19.34;63.60;101013.94;5034460;28;20029;-52
2021/08/11 02:29:31;;;;;;;3.03;2.30;;;;;;;19.34;63.44;101018.44;5034109;28;20491;-57
2021/08/11 02:32:15;;;;;;;2.85;2.33;;;;;;;19.33;63.44;101014.88;5035654;28;20033;-51
2021/08/11 02:35:13;;;;;;;2.70;2.50;;;;;;;19.33;63.59;101017.53;5033895;28;20120;-51
2021/08/11 02:37:51;;;;;;;2.95;2.55;;;;;;;19.31;63.60;101016.72;5016687;28;20052;-52
2021/08/11 02:40:27;;;;;;;3.25;2.65;;;;;;;19.31;63.46;101022.06;5034576;28;20025;-51
2021/08/11 02:43:22;;;;;;;4.18;2.65;;;;;;;19.30;63.48;101022.13;5052289;28;20416;-57
2021/08/11 02:45:56;;;;;;;2.55;2.35;;;;;;;19.29;63.58;101021.28;5048949;28;20056;-51
2021/08/11 02:48:22;;;;;;;2.80;2.60;;;;;;;19.29;63.49;101020.41;5033315;28;20020;-52
2021/08/11 02:50:48;;;;;;;2.58;2.38;;;;;;;19.28;63.68;101024.00;5051940;28;20483;-51
2021/08/11 02:53:15;;;;;;;2.85;2.65;;;;;;;19.25;63.58;101025.00;5033656;28;20029;-51
2021/08/11 02:55:41;;;;;;;3.35;2.80;;;;;;;19.26;63.62;101026.75;5033314;28;20079;-51
2021/08/11 02:58:07;;;;;;;3.05;2.75;;;;;;;19.26;63.59;101032.09;5034037;28;20029;-59
2021/08/11 03:03:56;;;;;;;3.95;2.97;;;;;;;19.24;63.59;101039.28;5049966;28;20036;-54
2021/08/11 03:06:23;;;;;;;3.20;2.80;;;;;;;19.25;63.53;101040.19;5051319;28;20021;-51
2021/08/11 03:08:50;;;;;;;3.28;2.22;;;;;;;19.23;63.55;101041.13;5033188;28;20025;-53
2021/08/11 03:11:15;;;;;;;3.05;2.85;;;;;;;19.21;63.71;101034.94;5049168;28;20082;-55
2021/08/11 03:13:44;;;;;;;2.85;2.50;;;;;;;19.21;63.56;101037.63;5047937;28;20024;-53
2021/08/11 03:16:13;;;;;;;3.88;2.80;;;;;;;19.21;63.52;101039.44;5031605;28;20029;-54
2021/08/11 03:18:39;;;;;;;2.42;2.22;;;;;;;19.19;63.66;101038.63;5049417;28;20051;-54
2021/08/11 03:21:05;;;;;;;6.57;2.67;;;;;;;19.19;63.66;101035.94;5050534;28;20532;-54
2021/08/11 03:23:30;;;;;;;3.25;2.95;;;;;;;19.19;63.56;101036.81;5032733;28;20052;-52
2021/08/11 03:25:56;;;;;;;4.60;2.90;;;;;;;19.19;63.49;101035.94;5050671;28;20024;-54
2021/08/11 03:28:21;;;;;;;2.80;2.60;;;;;;;19.18;63.57;101036.88;5051496;28;20392;-55
2021/08/11 03:30:46;;;;;;;2.78;2.47;;;;;;;19.17;63.54;101029.81;5050106;28;20025;-54
2021/08/11 03:33:12;;;;;;;3.67;2.90;;;;;;;19.17;63.46;101032.47;5049857;28;20063;-52
2021/08/11 03:35:37;;;;;;;3.47;2.85;;;;;;;19.16;63.52;101036.94;5050729;28;20112;-54
2021/08/11 03:38:08;;;;;;;3.65;3.35;;;;;;;19.16;63.41;101036.06;5050362;28;20029;-54
2021/08/11 03:43:55;;;;;;;3.20;2.90;;;;;;;19.15;63.52;101042.34;5048370;28;20400;-54
2021/08/11 03:46:20;;;;;;;2.85;2.50;;;;;;;19.14;63.43;101043.28;5049587;28;20028;-54
2021/08/11 03:48:45;;;;;;;3.20;2.90;;;;;;;19.15;63.38;101045.03;5049618;28;20025;-54
2021/08/11 03:51:11;;;;;;;2.88;2.53;;;;;;;19.14;63.48;101045.97;5048021;28;20096;-54
2021/08/11 03:53:41;;;;;;;3.25;2.95;;;;;;;19.12;63.41;101055.81;5049638;28;20074;-54
2021/08/11 03:56:06;;;;;;;3.03;2.67;;;;;;;19.12;63.27;101058.50;5033795;28;20032;-54
2021/08/11 03:58:33;;;;;;;3.20;2.42;;;;;;;19.10;63.28;101064.78;5050664;28;20034;-54
2021/08/11 04:00:58;;;;;;;3.88;2.58;;;;;;;19.09;63.41;101063.06;5047983;28;20071;-54
2021/08/11 04:03:23;;;;;;;2.72;2.53;;;;;;;19.09;63.43;101068.41;5046971;28;20488;-54
2021/08/11 04:05:49;;;;;;;2.70;2.50;;;;;;;19.09;63.35;101067.50;5041326;28;20032;-54
2021/08/11 04:08:15;;;;;;;2.75;2.47;;;;;;;19.08;63.23;101074.66;5051416;28;20124;-54
2021/08/11 04:10:45;;;;;;;2.50;2.30;;;;;;;19.07;63.21;101083.59;5050433;28;20033;-54
2021/08/11 04:13:10;;;;;;;2.90;2.60;;;;;;;19.06;63.38;101081.88;5049513;28;20017;-53
2021/08/11 04:15:35;;;;;;;3.03;2.83;;;;;;;19.06;63.29;101084.53;5046655;22;20071;-47
2021/08/11 04:18:02;;;;;;;3.00;2.80;;;;;;;19.05;63.17;101087.25;5029845;28;20096;-47
2021/08/11 04:20:27;;;;;;;2.95;2.67;;;;;;;19.05;63.22;101088.13;5027992;28;20031;-47
2021/08/11 04:26:14;;;;;;;2.70;2.50;;;;;;;19.06;63.28;101089.91;5009226;28;20028;-47
2021/08/11 04:28:40;;;;;;;3.45;3.15;;;;;;;19.04;63.31;101083.69;5009351;28;20104;-47
2021/08/11 04:31:05;;;;;;;3.55;2.47;;;;;;;19.05;63.33;101097.94;5010579;28;20095;-47
2021/08/11 04:33:30;;;;;;;2.55;2.35;;;;;;;19.03;62.94;101095.31;5009397;28;20030;-47
2021/08/11 04:35:56;;;;;;;2.58;2.35;;;;;;;19.03;63.20;101095.31;5009434;28;20030;-47
2021/08/11 04:38:21;;;;;;;3.75;2.50;;;;;;;19.03;63.44;101100.66;5008826;28;20080;-47
2021/08/11 04:40:46;;;;;;;2.70;2.50;;;;;;;19.04;63.17;101097.06;5009925;28;20026;-47
2021/08/11 04:43:13;;;;;;;3.25;2.70;;;;;;;19.04;63.39;101101.53;5006537;28;20409;-47
2021/08/11 04:45:43;;;;;;;3.15;2.45;;;;;;;19.04;63.21;101106.91;5008528;28;20367;-47
2021/08/11 04:48:09;;;;;;;3.08;2.78;;;;;;;19.03;63.43;101105.13;5009085;28;20022;-47
2021/08/11 04:50:34;;;;;;;3.15;2.53;;;;;;;19.01;63.14;101107.00;5008216;28;20017;-47
2021/08/11 04:53:01;;;;;;;2.60;2.40;;;;;;;19.01;63.23;101102.53;5008412;28;20026;-47
2021/08/11 04:55:26;;;;;;;2.53;2.33;;;;;;;18.99;63.41;101104.38;5009337;28;20026;-47
2021/08/11 04:57:51;;;;;;;2.95;2.75;;;;;;;18.99;63.20;101104.38;5008851;28;20405;-47
2021/08/11 05:00:17;;;;;;;3.20;2.70;;;;;;;18.98;63.40;101110.66;5008986;28;20030;-47
2021/08/11 05:02:42;;;;;;;2.42;2.22;;;;;;;18.98;63.34;101113.34;5008958;28;20028;-47
2021/08/11 05:05:11;;;;;;;3.30;2.72;;;;;;;18.99;63.51;101112.41;5008731;28;20469;-47
2021/08/11 05:07:36;;;;;;;2.97;2.30;;;;;;;18.98;63.48;101114.19;5009369;28;20034;-47
2021/08/11 05:10:02;;;;;;;2.25;2.05;;;;;;;18.96;63.33;101121.41;5003725;28;20402;-47
2021/08/11 05:12:29;;;;;;;2.67;2.47;;;;;;;18.97;63.30;101111.56;5008542;28;20072;-47
2021/08/11 05:14:55;;;;;;;2.85;2.58;;;;;;;18.95;63.44;101113.44;4974245;28;985327;-47
2021/08/11 05:17:22;;;;;;;3.03;2.72;;;;;;;18.94;63.61;101115.25;4990943;28;20029;-47
2021/08/11 05:19:48;;;;;;;2.78;2.58;;;;;;;18.96;63.29;101136.56;5010344;28;20393;-47
2021/08/11 05:22:14;;;;;;;2.60;2.30;;;;;;;18.89;63.59;101119.00;5010196;28;20029;-47
2021/08/11 05:24:40;;;;;;;2.67;2.40;;;;;;;18.93;63.42;101125.97;5009447;28;20033;-47
2021/08/11 05:27:05;;;;;;;2.67;2.40;;;;;;;18.92;63.44;101130.47;5009903;28;20052;-47
2021/08/11 05:29:31;;;;;;;2.65;2.45;;;;;;;18.93;63.55;101125.97;5010567;28;20393;-47
2021/08/11 05:31:57;;;;;;;3.22;2.22;;;;;;;18.91;63.40;101131.38;5009737;28;20021;-47
2021/08/11 05:34:22;;;;;;;2.50;2.30;;;;;;;18.92;63.38;101127.81;5009677;28;20401;-47
2021/08/11 05:36:48;;;;;;;2.88;2.10;;;;;;;18.92;63.43;101143.84;5010330;28;20018;-47
2021/08/11 05:39:13;;;;;;;2.80;2.60;;;;;;;18.92;63.38;101141.16;5010474;28;20018;-47
2021/08/11 05:41:38;;;;;;;2.20;2.00;;;;;;;18.90;63.63;101142.16;5012914;28;20482;-47
2021/08/11 05:44:05;;;;;;;2.40;2.20;;;;;;;18.91;63.42;101143.91;5013748;28;20065;-47
2021/08/11 05:46:30;;;;;;;2.67;2.40;;;;;;;18.90;63.66;101152.84;4994801;28;20029;-47
2021/08/11 05:48:56;;;;;;;2.72;2.53;;;;;;;18.89;63.71;101156.44;5009375;28;20366;-47
2021/08/11 05:51:21;;;;;;;2.78;2.58;;;;;;;18.91;63.61;101154.59;5013180;28;20077;-47
2021/08/11 05:53:46;;;;;;;3.38;2.47;;;;;;;18.89;63.66;101146.63;5013076;28;20025;-47
2021/08/11 05:56:11;;;;;;;2.63;2.42;;;;;;;18.88;63.68;101154.69;5013583;28;20147;-47
2021/08/11 05:58:37;;;;;;;2.60;2.20;;;;;;;18.88;63.57;101160.91;5013421;28;20557;-47
2021/08/11 06:01:02;;;;;;;3.08;2.80;;;;;;;18.89;63.74;101164.44;5011662;28;20491;-47
2021/08/11 06:03:27;;;;;;;2.38;2.17;;;;;;;18.89;63.70;101161.78;5013482;28;20045;-47
2021/08/11 06:05:52;;;;;;;3.33;2.60;;;;;;;18.89;63.76;101153.75;5012959;28;20076;-47
2021/08/11 06:08:18;;;;;;;2.40;2.20;;;;;;;18.85;63.70;101161.88;5013511;28;20021;-47
2021/08/11 06:10:43;;;;;;;2.50;2.30;;;;;;;18.86;63.92;101160.09;5013011;28;20029;-47
2021/08/11 06:13:10;;;;;;;2.65;2.45;;;;;;;18.88;63.81;101165.38;5013360;28;20101;-47
2021/08/11 06:15:35;;;;;;;3.15;2.85;;;;;;;18.87;63.79;101158.31;5012953;28;20440;-47
2021/08/11 06:18:00;;;;;;;3.97;2.67;;;;;;;18.85;63.85;101167.22;5011552;28;20022;-47
2021/08/11 06:20:26;;;;;;;2.65;2.45;;;;;;;18.83;64.13;101163.75;4997290;28;20104;-47
2021/08/11 06:22:51;;;;;;;2.72;2.53;;;;;;;18.84;64.00;101162.81;5013120;28;20034;-47
2021/08/11 06:25:17;;;;;;;2.08;1.95;;;;;;;18.83;63.98;101161.06;5012402;28;20057;-47
2021/08/11 06:27:42;;;;;;;2.65;2.45;;;;;;;18.87;63.92;101163.66;5012375;28;20056;-47
2021/08/11 06:30:10;;;;;;;3.00;2.70;;;;;;;18.85;63.80;101166.38;5013144;28;20065;-47
2021/08/11 06:32:36;;;;;;;2.60;2.40;;;;;;;18.87;63.69;101171.66;5011279;28;20033;-47
2021/08/11 06:35:01;;;;;;;2.80;2.50;;;;;;;18.87;63.88;101175.19;5012451;28;20060;-47
2021/08/11 06:37:26;;;;;;;2.28;2.10;;;;;;;18.87;63.75;101169.00;5012423;28;20025;-47
2021/08/11 06:39:52;;;;;;;2.67;2.30;;;;;;;18.88;64.32;101176.06;5013071;28;20492;-47
2021/08/11 06:42:17;;;;;;;2.95;2.65;;;;;;;18.87;63.77;101169.00;5012430;28;20433;-48
2021/08/11 06:44:42;;;;;;;2.83;2.60;;;;;;;18.88;63.81;101176.06;5012381;28;20469;-47
2021/08/11 06:47:07;;;;;;;3.00;2.70;;;;;;;18.88;63.67;101171.59;5009673;28;20069;-47
2021/08/11 06:49:33;;;;;;;3.08;2.75;;;;;;;18.89;63.86;101177.81;5010645;28;20101;-47
2021/08/11 06:51:58;;;;;;;2.45;2.25;;;;;;;18.87;63.80;101172.50;5011271;28;20029;-47
2021/08/11 06:54:23;;;;;;;2.35;2.15;;;;;;;18.87;64.20;101171.66;5011858;28;20022;-47
2021/08/11 06:56:49;;;;;;;2.65;2.42;;;;;;;18.88;64.04;101170.72;5012486;28;20014;-47
2021/08/11 06:59:14;;;;;;;2.42;2.22;;;;;;;18.89;63.63;101172.47;5012582;28;20105;-47
2021/08/11 07:01:39;;;;;;;2.70;2.50;;;;;;;18.91;64.03;101170.63;5011974;28;20021;-47
2021/08/11 07:04:05;;;;;;;2.88;2.60;;;;;;;18.89;63.73;101175.13;5010447;28;20469;-48
2021/08/11 07:06:31;;;;;;;3.08;2.80;;;;;;;18.88;63.99;101170.72;5011586;28;20436;-47
2021/08/11 07:08:57;;;;;;;3.03;2.72;;;;;;;18.84;63.93;101170.81;5011865;28;20033;-47
2021/08/11 07:11:22;;;;;;;2.92;2.72;;;;;;;18.84;63.71;101170.81;5012241;28;20033;-47
2021/08/11 07:13:47;;;;;;;3.45;3.15;;;;;;;18.82;64.10;101166.47;5010982;28;20018;-47
2021/08/11 07:16:13;;;;;;;2.75;2.55;;;;;;;18.84;64.19;101170.81;5012550;28;20026;-47
2021/08/11 07:18:38;;;;;;;2.55;2.30;;;;;;;18.87;64.00;101177.00;5011378;28;20095;-47
2021/08/11 07:21:03;;;;;;;2.60;2.40;;;;;;;18.84;64.06;101169.97;5012450;28;20014;-47
2021/08/11 07:23:32;;;;;;;2.55;2.35;;;;;;;18.85;63.86;101180.59;5012054;28;20084;-46
2021/08/11 07:25:57;;;;;;;2.85;2.50;;;;;;;18.89;63.82;101185.81;5011210;28;20029;-45
2021/08/11 07:28:22;;;;;;;3.00;2.80;;;;;;;18.84;63.92;101180.66;5011775;28;20014;-46
2021/08/11 07:30:47;;;;;;;2.90;2.70;;;;;;;18.83;64.36;101174.44;5010277;28;20037;-45
2021/08/11 07:33:13;;;;;;;3.00;2.80;;;;;;;18.85;64.08;101191.28;5011279;28;20152;-45
2021/08/11 07:35:39;;;;;;;2.63;2.42;;;;;;;18.84;64.18;101181.50;5009790;28;20447;-45
2021/08/11 07:38:05;;;;;;;2.42;2.33;;;;;;;18.85;64.01;101185.06;5010099;28;20025;-45
2021/08/11 07:40:31;;;;;;;3.38;3.08;;;;;;;18.84;64.03;101186.00;5011617;28;20022;-45
2021/08/11 07:42:57;;;;;;;3.17;2.58;;;;;;;18.83;64.20;101187.78;5009195;28;20100;-45
2021/08/11 07:45:25;;;;;;;4.22;3.30;;;;;;;18.87;64.15;101187.69;5011399;28;20034;-45
2021/08/11 07:47:54;;;;;;;2.95;2.58;;;;;;;18.82;64.05;101185.19;5011449;28;20105;-46
2021/08/11 07:50:22;;;;;;;2.45;2.25;;;;;;;18.86;63.99;101189.47;5011157;28;20025;-45
2021/08/11 07:52:47;;;;;;;3.35;3.05;;;;;;;18.86;64.08;101189.47;5011024;28;20508;-46
2021/08/11 07:55:14;;;;;;;3.25;2.95;;;;;;;18.84;64.21;101192.19;5007320;28;20045;-46
2021/08/11 07:57:39;;;;;;;3.45;3.15;;;;;;;18.85;64.28;101187.75;5010994;28;20094;-46
2021/08/11 08:00:12;;;;;;;3.50;3.20;;;;;;;18.85;64.19;101187.75;5011711;28;20408;-46
2021/08/11 08:02:38;;;;;;;2.95;2.67;;;;;;;18.84;64.29;101186.88;5010911;28;20108;-46
2021/08/11 08:05:03;;;;;;;3.22;2.88;;;;;;;18.84;64.19;101180.66;4990807;28;20121;-45
2021/08/11 08:07:30;;;;;;;3.50;3.20;;;;;;;18.85;64.23;101191.28;5009337;28;20047;-45
2021/08/11 08:09:55;;;;;;;3.78;3.13;;;;;;;18.80;64.34;101182.56;5010984;28;20022;-46
2021/08/11 08:12:21;;;;;;;3.75;2.80;;;;;;;18.81;64.11;101194.97;5011255;28;20025;-46
2021/08/11 08:14:47;;;;;;;3.47;2.95;;;;;;;18.86;64.21;101184.13;5009850;28;20022;-46
2021/08/11 08:17:12;;;;;;;4.03;3.63;;;;;;;18.90;63.97;101195.59;4987861;28;20068;-46
2021/08/11 08:19:38;;;;;;;3.13;2.92;;;;;;;18.85;64.24;101199.28;5010792;28;20038;-45
2021/08/11 08:22:03;;;;;;;3.25;2.95;;;;;;;18.85;64.30;101196.63;5011088;28;20044;-46
2021/08/11 08:24:31;;;;;;;3.60;3.30;;;;;;;18.85;64.25;101199.28;5010932;28;20057;-45
2021/08/11 08:26:57;;;;;;;3.50;3.20;;;;;;;18.88;64.26;101200.13;5010231;28;20049;-46
2021/08/11 08:29:26;;;;;;;3.75;3.45;;;;;;;18.88;64.49;101200.13;5010564;28;20068;-45
2021/08/11 08:32:00;;;;;;;3.92;3.30;;;;;;;18.89;64.40;101196.50;5009718;28;20556;-45
2021/08/11 08:34:26;;;;;;;4.57;4.18;;;;;;;18.87;64.24;101201.06;5009680;28;20053;-45
2021/08/11 08:36:51;;;;;;;3.92;3.42;;;;;;;18.88;64.41;101192.09;5011000;28;20473;-46
2021/08/11 08:39:16;;;;;;;3.88;3.58;;;;;;;18.89;64.44;101191.16;4990532;28;20076;-45
2021/08/11 08:41:43;;;;;;;3.67;3.38;;;;;;;18.88;64.41;101187.63;5010780;28;20061;-45
2021/08/11 08:44:10;;;;;;;3.40;3.20;;;;;;;18.85;64.76;101193.94;5009920;28;20096;-46
2021/08/11 08:46:36;;;;;;;4.82;4.20;;;;;;;18.85;64.68;101199.28;5009837;28;20029;-46
2021/08/11 08:49:02;;;;;;;4.85;3.30;;;;;;;18.88;64.23;101198.34;4992024;28;20056;-45
2021/08/11 08:51:29;;;;;;;3.63;3.28;;;;;;;18.87;64.40;101195.72;4993139;28;20152;-45
2021/08/11 08:53:54;;;;;;;4.18;3.78;;;;;;;18.81;64.58;101186.13;5009561;28;20105;-46
2021/08/11 08:56:20;;;;;;;3.70;3.40;;;;;;;18.87;64.39;101195.72;4991814;28;20116;-46
2021/08/11 08:58:45;;;;;;;4.18;3.83;;;;;;;18.87;64.25;101204.56;5009817;28;20029;-45
2021/08/11 09:01:10;;;;;;;3.60;3.30;;;;;;;18.85;64.12;101185.06;5010195;28;20041;-45
2021/08/11 09:03:36;;;;;;;3.90;3.60;;;;;;;18.85;64.48;101183.25;5008876;28;20134;-45
2021/08/11 09:06:01;;;;;;;5.75;4.03;;;;;;;18.88;64.66;101189.44;5010400;28;20022;-46
2021/08/11 09:08:27;;;;;;;3.80;3.40;;;;;;;18.89;64.51;101191.16;5009850;28;20504;-46
2021/08/11 09:10:52;;;;;;;4.82;3.80;;;;;;;18.89;64.25;101199.19;5009989;28;20046;-46
2021/08/11 09:13:20;;;;;;;4.57;4.18;;;;;;;18.88;64.23;101193.00;5009327;28;20080;-45
2021/08/11 09:15:47;;;;;;;4.40;3.92;;;;;;;18.88;64.44;101189.44;5010953;28;20040;-45
2021/08/11 09:18:23;;;;;;;4.50;4.10;;;;;;;18.88;64.71;101193.00;5014367;28;20534;-46
2021/08/11 09:21:12;;;;;;;4.38;3.97;;;;;;;18.89;64.45;101193.84;4997148;28;20050;-46
2021/08/11 09:23:45;;;;;;;4.03;3.63;;;;;;;18.89;64.24;101193.84;5012160;28;20513;-45
2021/08/11 09:26:12;;;;;;;4.05;3.65;;;;;;;18.88;64.26;101198.34;5011056;28;20030;-45
2021/08/11 09:28:40;;;;;;;4.18;3.78;;;;;;;18.88;64.15;101194.78;5013435;28;20021;-45
2021/08/11 09:31:25;;;;;;;4.57;3.80;;;;;;;18.88;64.17;101187.63;4995970;28;20026;-45
2021/08/11 09:33:53;;;;;;;3.75;3.45;;;;;;;18.89;64.31;101199.19;4980283;28;20058;-46
2021/08/11 09:36:19;;;;;;;4.50;4.10;;;;;;;18.90;64.20;101201.81;5002660;28;20021;-45
2021/08/11 09:39:03;;;;;;;5.22;3.90;;;;;;;18.90;64.04;101204.47;5012698;28;20038;-46
2021/08/11 09:41:30;;;;;;;3.80;3.50;;;;;;;18.91;64.18;101198.19;4998723;28;20045;-45
2021/08/11 09:44:13;;;;;;;3.70;3.40;;;;;;;18.90;64.09;101195.59;5008355;28;20018;-46
2021/08/11 09:46:40;;;;;;;4.28;3.85;;;;;;;18.91;64.11;101197.34;5013254;28;20026;-45
2021/08/11 09:49:18;;;;;;;4.28;3.88;;;;;;;18.91;64.11;101197.34;5013994;28;20136;-45
2021/08/11 09:51:54;;;;;;;4.22;3.85;;;;;;;18.91;64.34;101198.19;4995963;28;20017;-46
2021/08/11 09:54:20;;;;;;;4.88;3.65;;;;;;;18.92;64.14;101193.72;5011139;28;20030;-45
2021/08/11 09:56:45;;;;;;;4.80;4.40;;;;;;;18.93;64.07;101196.34;5010668;28;20072;-45
2021/08/11 09:59:11;;;;;;;4.13;3.72;;;;;;;18.95;64.05;101201.66;5014018;28;20025;-46
2021/08/11 10:01:36;;;;;;;4.22;3.83;;;;;;;18.94;64.05;101197.25;5013674;28;20018;-45
2021/08/11 10:04:03;;;;;;;4.10;3.70;;;;;;;18.94;64.28;101197.25;5012998;28;20022;-46
2021/08/11 10:06:32;;;;;;;4.97;4.10;;;;;;;18.95;64.33;101199.84;5011974;28;20017;-45
2021/08/11 10:09:24;;;;;;;4.97;4.07;;;;;;;18.95;64.22;101207.00;5011062;28;20100;-46
2021/08/11 10:11:57;;;;;;;4.78;4.20;;;;;;;18.95;64.15;101207.00;5011249;28;20436;-45
2021/08/11 10:14:26;;;;;;;7.07;4.30;;;;;;;18.95;64.16;101201.66;5017470;22;20025;-45
2021/08/11 10:20:13;;;;;;;4.32;3.92;;;;;;;18.97;64.20;101189.97;5032695;28;20400;-44
2021/08/11 10:22:39;;;;;;;4.35;3.95;;;;;;;18.96;64.22;101198.91;5032899;28;20049;-45
2021/08/11 10:25:06;;;;;;;4.47;4.07;;;;;;;18.96;63.93;101201.59;5031149;28;20099;-44
2021/08/11 10:27:31;;;;;;;4.90;4.50;;;;;;;18.96;63.90;101190.91;5014425;28;20104;-44
2021/08/11 10:29:57;;;;;;;4.70;4.30;;;;;;;18.98;64.00;101193.53;5017089;28;20476;-44
2021/08/11 10:32:23;;;;;;;4.35;3.95;;;;;;;19.00;63.89;101198.81;5016070;28;20021;-44
2021/08/11 10:34:52;;;;;;;5.03;4.53;;;;;;;19.02;63.98;101196.94;5015889;28;20040;-44
2021/08/11 10:37:18;;;;;;;4.90;4.50;;;;;;;19.03;63.85;101196.00;4984439;28;20045;-44
2021/08/11 10:39:43;;;;;;;4.65;4.10;;;;;;;19.05;63.94;101205.75;5016255;28;20030;-44
2021/08/11 10:42:11;;;;;;;4.22;3.92;;;;;;;19.05;64.04;101203.06;5017962;28;20024;-44
2021/08/11 10:44:37;;;;;;;4.95;4.40;;;;;;;19.04;64.01;101206.66;5012665;28;20033;-44
2021/08/11 10:47:05;;;;;;;4.50;3.90;;;;;;;19.04;63.99;101203.13;5004841;28;20021;-48
2021/08/11 10:49:31;;;;;;;5.28;4.70;;;;;;;19.03;63.80;101191.53;5001032;28;20053;-44
2021/08/11 10:52:13;;;;;;;5.28;4.18;;;;;;;19.07;63.94;101197.66;5000697;28;20324;-44
2021/08/11 10:55:08;;;;;;;5.50;4.90;;;;;;;19.07;64.36;101198.56;5017643;28;20397;-44
2021/08/11 10:57:33;;;;;;;5.32;4.82;;;;;;;19.07;63.93;101201.22;4987012;28;20088;-45
2021/08/11 10:59:59;;;;;;;4.53;4.13;;;;;;;19.06;64.02;101191.47;5019237;28;20033;-44
2021/08/11 11:02:36;;;;;;;4.95;4.55;;;;;;;19.05;63.99;101187.03;5016755;28;20030;-45
2021/08/11 11:05:02;;;;;;;4.63;4.20;;;;;;;19.08;63.90;101192.28;5019711;28;20047;-45
2021/08/11 11:07:27;;;;;;;5.43;4.93;;;;;;;19.09;63.96;101196.72;5016747;28;20489;-44
2021/08/11 11:10:25;;;;;;;5.40;4.90;;;;;;;19.09;64.17;101186.00;5019355;28;20088;-45
2021/08/11 11:12:51;;;;;;;5.15;4.65;;;;;;;19.08;64.06;101183.41;5022059;28;20022;-44
2021/08/11 11:15:16;;;;;;;5.68;5.10;;;;;;;19.10;63.71;101182.41;5014083;28;20382;-44
2021/08/11 11:18:22;;;;;;;5.38;4.88;;;;;;;19.09;63.68;101183.34;5001393;28;20018;-44
2021/08/11 11:20:48;;;;;;;5.38;4.88;;;;;;;19.14;63.74;101184.97;5017721;28;20491;-44
2021/08/11 11:23:30;;;;;;;5.43;4.93;;;;;;;19.11;64.18;101183.28;5002478;28;20014;-44
2021/08/11 11:25:57;;;;;;;5.90;5.30;;;;;;;19.13;63.69;101189.44;5016582;28;20030;-45
2021/08/11 11:28:53;;;;;;;5.40;4.90;;;;;;;19.16;63.94;101188.44;5016827;28;20021;-44
2021/08/11 11:31:36;;;;;;;5.25;4.75;;;;;;;19.18;63.93;101187.44;4988867;28;20033;-45
2021/08/11 11:34:27;;;;;;;5.50;4.95;;;;;;;19.15;63.76;101182.25;5017163;28;20018;-44
2021/08/11 11:36:55;;;;;;;4.97;4.57;;;;;;;19.15;63.80;101184.91;5020953;28;20034;-44
2021/08/11 11:39:24;;;;;;;5.40;4.82;;;;;;;19.18;63.76;101187.44;5014211;28;20374;-44
2021/08/11 11:42:08;;;;;;;5.53;5.03;;;;;;;19.18;63.86;101183.94;5019374;28;20412;-44